Wetterdaten: Woche 15.05.17 - 21.05.17 (KW20)
Datum Zeit Temperatur Luftfeuchte Luftdruck Niederschlag Windrichtung Sonnenschein Solar Wind
15.05.2017 00:00 11,0 C 97 % 1024,8 hPa 0,0 l/m S-SW 0,00 h 0 W/m 8,2 km/h (2 Bft)
15.05.2017 01:00 10,5 C 98 % 1025,0 hPa 0,0 l/m S-SW 0,00 h 0 W/m 4,4 km/h (1 Bft)
15.05.2017 02:00 10,1 C 98 % 1025,0 hPa 0,0 l/m N 0,00 h 0 W/m 1,1 km/h (0 Bft)
15.05.2017 03:00 10,4 C 99 % 1025,3 hPa 0,0 l/m N 0,00 h 0 W/m 0,0 km/h (0 Bft)
15.05.2017 04:00 10,0 C 98 % 1025,4 hPa 0,0 l/m S-SW 0,00 h 0 W/m 2,1 km/h (1 Bft)
15.05.2017 05:00 10,0 C 99 % 1025,6 hPa 0,0 l/m S-SW 0,08 h 9 W/m 7,9 km/h (2 Bft)
15.05.2017 06:00 10,5 C 99 % 1026,0 hPa 0,0 l/m SW 0,25 h 34 W/m 8,9 km/h (2 Bft)
15.05.2017 07:00 11,0 C 99 % 1026,5 hPa 0,0 l/m SW 0,00 h 94 W/m 4,6 km/h (1 Bft)
15.05.2017 08:00 11,4 C 99 % 1027,0 hPa 0,0 l/m SW 0,00 h 78 W/m 5,6 km/h (1 Bft)
15.05.2017 09:00 12,0 C 98 % 1027,6 hPa 1,0 l/m SW 0,33 h 248 W/m 5,4 km/h (1 Bft)
15.05.2017 10:00 13,7 C 94 % 1027,8 hPa 0,0 l/m SW 0,42 h 495 W/m 5,9 km/h (2 Bft)
15.05.2017 11:00 16,0 C 82 % 1027,7 hPa 0,0 l/m S 0,67 h 746 W/m 6,6 km/h (2 Bft)
15.05.2017 12:00 17,3 C 74 % 1027,4 hPa 0,0 l/m SW 0,67 h 769 W/m 9,0 km/h (2 Bft)
15.05.2017 13:00 18,3 C 67 % 1027,2 hPa 0,0 l/m SW 0,42 h 587 W/m 7,9 km/h (2 Bft)
15.05.2017 14:00 13,6 C 83 % 1027,7 hPa 3,0 l/m W-NW 0,00 h 137 W/m 13,8 km/h (3 Bft)
15.05.2017 15:00 14,2 C 87 % 1027,3 hPa 0,0 l/m W-NW 0,08 h 256 W/m 3,5 km/h (1 Bft)
15.05.2017 16:00 17,3 C 74 % 1026,7 hPa 0,0 l/m W-NW 0,92 h 694 W/m 2,5 km/h (1 Bft)
15.05.2017 17:00 19,4 C 62 % 1026,5 hPa 0,0 l/m O 1,00 h 458 W/m 6,2 km/h (2 Bft)
15.05.2017 18:00 19,3 C 60 % 1026,5 hPa 0,0 l/m O-NO 0,83 h 272 W/m 8,8 km/h (2 Bft)
15.05.2017 19:00 18,3 C 62 % 1026,5 hPa 0,0 l/m O-NO 0,58 h 113 W/m 3,9 km/h (1 Bft)
15.05.2017 20:00 15,6 C 79 % 1026,8 hPa 0,0 l/m N 0,17 h 24 W/m 0,0 km/h (0 Bft)
15.05.2017 21:00 13,3 C 88 % 1027,3 hPa 0,0 l/m N 0,00 h 0 W/m 0,3 km/h (0 Bft)
15.05.2017 22:00 12,3 C 91 % 1027,9 hPa 0,0 l/m N 0,00 h 0 W/m 0,0 km/h (0 Bft)
15.05.2017 23:00 11,5 C 93 % 1028,1 hPa 0,0 l/m N 0,00 h 0 W/m 0,0 km/h (0 Bft)
16.05.2017 00:00 10,7 C 95 % 1028,2 hPa 0,0 l/m N 0,00 h 0 W/m 0,0 km/h (0 Bft)
16.05.2017 01:00 10,1 C 95 % 1028,1 hPa 0,0 l/m N 0,00 h 0 W/m 0,0 km/h (0 Bft)
16.05.2017 02:00 9,7 C 96 % 1027,8 hPa 0,0 l/m N 0,00 h 0 W/m 0,0 km/h (0 Bft)
16.05.2017 03:00 9,1 C 96 % 1027,6 hPa 0,0 l/m N 0,00 h 0 W/m 0,8 km/h (0 Bft)
16.05.2017 04:00 8,6 C 96 % 1027,4 hPa 0,0 l/m N 0,00 h 0 W/m 0,0 km/h (0 Bft)
16.05.2017 05:00 7,9 C 96 % 1027,3 hPa 0,0 l/m N 0,08 h 8 W/m 0,0 km/h (0 Bft)
16.05.2017 06:00 7,6 C 96 % 1027,3 hPa 0,0 l/m N 0,50 h 62 W/m 0,0 km/h (0 Bft)
16.05.2017 07:00 10,3 C 96 % 1027,6 hPa 0,0 l/m N 0,92 h 232 W/m 0,0 km/h (0 Bft)
16.05.2017 08:00 13,2 C 88 % 1027,8 hPa 0,0 l/m O-NO 1,00 h 428 W/m 4,3 km/h (1 Bft)
16.05.2017 09:00 16,1 C 77 % 1027,8 hPa 0,0 l/m O-NO 0,83 h 460 W/m 8,8 km/h (2 Bft)
16.05.2017 10:00 18,3 C 63 % 1027,7 hPa 0,0 l/m O-NO 0,92 h 680 W/m 11,6 km/h (2 Bft)
16.05.2017 11:00 19,6 C 55 % 1027,5 hPa 0,0 l/m O 0,92 h 794 W/m 12,2 km/h (2 Bft)
16.05.2017 12:00 20,5 C 51 % 1027,2 hPa 0,0 l/m NO 1,00 h 877 W/m 13,4 km/h (3 Bft)
16.05.2017 13:00 21,3 C 47 % 1026,6 hPa 0,0 l/m NO 1,00 h 876 W/m 12,4 km/h (3 Bft)
16.05.2017 14:00 22,0 C 45 % 1026,0 hPa 0,0 l/m O 1,00 h 828 W/m 13,8 km/h (3 Bft)
16.05.2017 15:00 22,5 C 44 % 1025,6 hPa 0,0 l/m NO 1,00 h 749 W/m 12,6 km/h (3 Bft)
16.05.2017 16:00 22,9 C 41 % 1024,9 hPa 0,0 l/m O 1,00 h 648 W/m 12,2 km/h (2 Bft)
16.05.2017 17:00 23,2 C 41 % 1024,5 hPa 0,0 l/m O-SO 1,00 h 471 W/m 11,3 km/h (2 Bft)
16.05.2017 18:00 22,9 C 42 % 1024,1 hPa 0,0 l/m O 1,00 h 294 W/m 11,3 km/h (2 Bft)
16.05.2017 19:00 21,4 C 49 % 1024,0 hPa 0,0 l/m O-NO 0,50 h 116 W/m 11,0 km/h (2 Bft)
16.05.2017 20:00 19,5 C 56 % 1024,2 hPa 0,0 l/m NO 0,08 h 21 W/m 7,9 km/h (2 Bft)
16.05.2017 21:00 16,3 C 71 % 1024,6 hPa 0,0 l/m N 0,00 h 5 W/m 1,2 km/h (1 Bft)
16.05.2017 22:00 14,7 C 76 % 1024,6 hPa 0,0 l/m N 0,00 h 0 W/m 0,3 km/h (0 Bft)
16.05.2017 23:00 13,5 C 82 % 1024,4 hPa 0,0 l/m N 0,00 h 0 W/m 0,3 km/h (0 Bft)
17.05.2017 00:00 12,7 C 85 % 1024,4 hPa 0,0 l/m N 0,00 h 0 W/m 0,4 km/h (0 Bft)
17.05.2017 01:00 12,2 C 85 % 1024,0 hPa 0,0 l/m N 0,00 h 0 W/m 0,0 km/h (0 Bft)
17.05.2017 02:00 11,6 C 88 % 1023,2 hPa 0,0 l/m N 0,00 h 0 W/m 0,3 km/h (0 Bft)
17.05.2017 03:00 11,3 C 88 % 1022,5 hPa 0,0 l/m NO 0,00 h 0 W/m 2,0 km/h (1 Bft)
17.05.2017 04:00 10,8 C 90 % 1022,0 hPa 0,0 l/m N 0,00 h 0 W/m 1,2 km/h (1 Bft)
17.05.2017 05:00 10,3 C 91 % 1021,6 hPa 0,0 l/m NO 0,00 h 8 W/m 1,9 km/h (1 Bft)
17.05.2017 06:00 10,5 C 91 % 1021,5 hPa 0,0 l/m N 0,75 h 73 W/m 0,7 km/h (0 Bft)
17.05.2017 07:00 12,7 C 85 % 1021,4 hPa 0,0 l/m NO 0,92 h 246 W/m 2,3 km/h (1 Bft)
17.05.2017 08:00 15,3 C 77 % 1021,0 hPa 0,0 l/m NO 1,00 h 431 W/m 3,7 km/h (1 Bft)
17.05.2017 09:00 18,8 C 66 % 1020,6 hPa 0,0 l/m O-NO 0,67 h 402 W/m 9,5 km/h (2 Bft)
17.05.2017 10:00 21,3 C 57 % 1019,8 hPa 0,0 l/m O-SO 0,92 h 664 W/m 10,6 km/h (2 Bft)
17.05.2017 11:00 22,7 C 52 % 1019,1 hPa 0,0 l/m O 1,00 h 818 W/m 12,1 km/h (2 Bft)
17.05.2017 12:00 23,8 C 46 % 1018,3 hPa 0,0 l/m O 1,00 h 871 W/m 12,9 km/h (3 Bft)
17.05.2017 13:00 25,0 C 43 % 1017,5 hPa 0,0 l/m O 1,00 h 871 W/m 13,4 km/h (3 Bft)
17.05.2017 14:00 25,8 C 42 % 1016,7 hPa 0,0 l/m O 1,00 h 825 W/m 12,2 km/h (2 Bft)
17.05.2017 15:00 26,4 C 39 % 1015,9 hPa 0,0 l/m O-SO 1,00 h 738 W/m 12,1 km/h (2 Bft)
17.05.2017 16:00 26,8 C 36 % 1015,1 hPa 0,0 l/m O-SO 1,00 h 616 W/m 13,2 km/h (3 Bft)
17.05.2017 17:00 27,0 C 33 % 1014,3 hPa 0,0 l/m O-SO 1,00 h 466 W/m 12,1 km/h (2 Bft)
17.05.2017 18:00 26,3 C 37 % 1013,8 hPa 0,0 l/m O-SO 1,00 h 296 W/m 13,4 km/h (3 Bft)
17.05.2017 19:00 24,8 C 47 % 1013,2 hPa 0,0 l/m O 0,42 h 113 W/m 11,7 km/h (2 Bft)
17.05.2017 20:00 22,5 C 56 % 1013,0 hPa 0,0 l/m O 0,00 h 15 W/m 5,8 km/h (1 Bft)
17.05.2017 21:00 18,7 C 73 % 1012,9 hPa 0,0 l/m N 0,00 h 0 W/m 0,3 km/h (0 Bft)
17.05.2017 22:00 17,0 C 79 % 1012,8 hPa 0,0 l/m N 0,00 h 0 W/m 0,1 km/h (0 Bft)
17.05.2017 23:00 15,7 C 83 % 1012,4 hPa 0,0 l/m N 0,00 h 0 W/m 0,0 km/h (0 Bft)
18.05.2017 00:00 14,9 C 86 % 1012,1 hPa 0,0 l/m N 0,00 h 0 W/m 0,3 km/h (0 Bft)
18.05.2017 01:00 14,4 C 87 % 1011,9 hPa 0,0 l/m N 0,00 h 0 W/m 1,3 km/h (1 Bft)
18.05.2017 02:00 13,4 C 90 % 1011,5 hPa 0,0 l/m N 0,00 h 0 W/m 0,0 km/h (0 Bft)
18.05.2017 03:00 12,5 C 92 % 1011,2 hPa 0,0 l/m N 0,00 h 0 W/m 0,0 km/h (0 Bft)
18.05.2017 04:00 12,0 C 94 % 1011,0 hPa 0,0 l/m N 0,00 h 0 W/m 0,0 km/h (0 Bft)
18.05.2017 05:00 11,7 C 95 % 1011,0 hPa 0,0 l/m N 0,08 h 9 W/m 0,0 km/h (0 Bft)
18.05.2017 06:00 11,8 C 95 % 1011,0 hPa 0,0 l/m N 0,25 h 44 W/m 0,0 km/h (0 Bft)
18.05.2017 07:00 13,1 C 94 % 1011,4 hPa 0,0 l/m N 0,08 h 128 W/m 0,1 km/h (0 Bft)
18.05.2017 08:00 14,9 C 91 % 1011,9 hPa 0,0 l/m O 0,42 h 295 W/m 2,9 km/h (1 Bft)
18.05.2017 09:00 18,6 C 79 % 1012,0 hPa 0,0 l/m S-SW 0,67 h 355 W/m 9,0 km/h (2 Bft)
18.05.2017 10:00 20,6 C 68 % 1012,0 hPa 0,0 l/m W-SW 1,00 h 576 W/m 14,4 km/h (3 Bft)
18.05.2017 11:00 22,0 C 60 % 1011,7 hPa 0,0 l/m W-NW 0,92 h 816 W/m 15,0 km/h (3 Bft)
18.05.2017 12:00 23,4 C 54 % 1011,4 hPa 0,0 l/m W-NW 1,00 h 903 W/m 13,6 km/h (3 Bft)
18.05.2017 13:00 24,6 C 51 % 1010,8 hPa 0,0 l/m N 1,00 h 920 W/m 9,8 km/h (2 Bft)
18.05.2017 14:00 25,5 C 46 % 1010,0 hPa 0,0 l/m N-NO 1,00 h 763 W/m 12,2 km/h (2 Bft)
18.05.2017 15:00 25,2 C 46 % 1009,4 hPa 0,0 l/m NO 0,75 h 560 W/m 10,5 km/h (2 Bft)
18.05.2017 16:00 25,1 C 46 % 1009,0 hPa 0,0 l/m O-NO 0,50 h 384 W/m 12,1 km/h (2 Bft)
18.05.2017 17:00 24,0 C 50 % 1008,4 hPa 0,0 l/m O 0,00 h 137 W/m 7,8 km/h (2 Bft)
18.05.2017 18:00 21,6 C 72 % 1008,0 hPa 0,2 l/m O 0,00 h 136 W/m 2,1 km/h (1 Bft)
18.05.2017 19:00 21,7 C 66 % 1007,7 hPa 0,0 l/m NO 0,33 h 109 W/m 8,9 km/h (2 Bft)
18.05.2017 20:00 19,8 C 73 % 1007,3 hPa 0,0 l/m NO 0,08 h 17 W/m 5,6 km/h (1 Bft)
18.05.2017 21:00 18,4 C 81 % 1007,2 hPa 0,0 l/m N 0,00 h 0 W/m 2,1 km/h (1 Bft)
18.05.2017 22:00 17,9 C 82 % 1007,2 hPa 0,0 l/m N 0,00 h 0 W/m 0,8 km/h (0 Bft)
18.05.2017 23:00 17,0 C 84 % 1007,1 hPa 0,0 l/m N 0,00 h 0 W/m 0,0 km/h (0 Bft)
19.05.2017 00:00 16,4 C 88 % 1006,8 hPa 0,0 l/m N 0,00 h 0 W/m 0,0 km/h (0 Bft)
19.05.2017 01:00 15,9 C 90 % 1006,3 hPa 0,0 l/m N 0,00 h 0 W/m 0,0 km/h (0 Bft)
19.05.2017 02:00 15,3 C 91 % 1005,7 hPa 0,0 l/m N 0,00 h 0 W/m 0,0 km/h (0 Bft)
19.05.2017 03:00 14,6 C 92 % 1005,4 hPa 0,0 l/m N 0,00 h 0 W/m 0,0 km/h (0 Bft)
19.05.2017 04:00 13,9 C 94 % 1005,7 hPa 0,0 l/m NW 0,00 h 0 W/m 5,8 km/h (2 Bft)
19.05.2017 05:00 13,9 C 93 % 1005,7 hPa 0,0 l/m N-NW 0,17 h 15 W/m 11,6 km/h (2 Bft)
19.05.2017 06:00 14,4 C 91 % 1005,9 hPa 0,0 l/m N-NW 0,50 h 57 W/m 5,8 km/h (2 Bft)
19.05.2017 07:00 14,9 C 91 % 1006,3 hPa 0,0 l/m N 0,00 h 109 W/m 0,3 km/h (0 Bft)
19.05.2017 08:00 15,9 C 87 % 1006,2 hPa 0,0 l/m N 0,08 h 219 W/m 2,3 km/h (1 Bft)
19.05.2017 09:00 16,4 C 84 % 1005,9 hPa 0,0 l/m N 0,00 h 179 W/m 2,0 km/h (1 Bft)
19.05.2017 10:00 16,4 C 84 % 1006,2 hPa 0,0 l/m N-NW 0,00 h 123 W/m 4,0 km/h (1 Bft)
19.05.2017 11:00 16,9 C 84 % 1006,1 hPa 0,0 l/m W-NW 0,00 h 254 W/m 4,1 km/h (1 Bft)
19.05.2017 12:00 17,3 C 83 % 1006,4 hPa 0,0 l/m W 0,00 h 266 W/m 9,0 km/h (2 Bft)
19.05.2017 13:00 15,7 C 88 % 1006,8 hPa 0,2 l/m W 0,00 h 177 W/m 21,5 km/h (4 Bft)
19.05.2017 14:00 12,4 C 92 % 1008,5 hPa 0,0 l/m W-NW 0,00 h 70 W/m 19,2 km/h (3 Bft)
19.05.2017 15:00 11,8 C 90 % 1010,1 hPa 0,0 l/m W 0,00 h 113 W/m 19,3 km/h (3 Bft)
19.05.2017 16:00 10,1 C 93 % 1011,6 hPa 0,8 l/m W 0,00 h 80 W/m 24,1 km/h (4 Bft)
19.05.2017 17:00 9,3 C 94 % 1012,9 hPa 1,8 l/m W-SW 0,00 h 110 W/m 23,6 km/h (4 Bft)
19.05.2017 18:00 8,7 C 94 % 1013,9 hPa 0,0 l/m W-SW 0,00 h 81 W/m 21,7 km/h (4 Bft)
19.05.2017 19:00 8,0 C 90 % 1014,9 hPa 0,0 l/m W-SW 0,00 h 70 W/m 22,4 km/h (4 Bft)
19.05.2017 20:00 7,5 C 90 % 1015,7 hPa 0,0 l/m W-SW 0,00 h 22 W/m 18,8 km/h (3 Bft)
19.05.2017 21:00 6,9 C 92 % 1016,4 hPa 0,0 l/m W-SW 0,00 h 5 W/m 12,1 km/h (2 Bft)
19.05.2017 22:00 6,4 C 93 % 1016,9 hPa 0,0 l/m W-SW 0,00 h 0 W/m 4,3 km/h (1 Bft)
19.05.2017 23:00 5,7 C 95 % 1017,2 hPa 0,0 l/m SW 0,00 h 0 W/m 4,3 km/h (1 Bft)
20.05.2017 00:00 5,6 C 94 % 1017,5 hPa 0,0 l/m SW 0,00 h 0 W/m 5,5 km/h (1 Bft)
20.05.2017 01:00 4,9 C 95 % 1017,7 hPa 0,0 l/m N 0,00 h 0 W/m 0,0 km/h (0 Bft)
20.05.2017 02:00 4,0 C 96 % 1017,9 hPa 0,0 l/m N 0,00 h 0 W/m 0,1 km/h (0 Bft)
20.05.2017 03:00 3,8 C 97 % 1018,1 hPa 0,0 l/m N 0,00 h 0 W/m 0,1 km/h (0 Bft)
20.05.2017 04:00 3,2 C 97 % 1018,3 hPa 0,0 l/m N 0,00 h 0 W/m 0,3 km/h (0 Bft)
20.05.2017 05:00 2,7 C 97 % 1018,5 hPa 0,0 l/m N 0,17 h 12 W/m 0,0 km/h (0 Bft)
20.05.2017 06:00 2,9 C 97 % 1019,0 hPa 0,0 l/m N 0,83 h 82 W/m 0,0 km/h (0 Bft)
20.05.2017 07:00 4,9 C 97 % 1019,8 hPa 0,2 l/m SW 1,00 h 249 W/m 1,1 km/h (0 Bft)
20.05.2017 08:00 7,9 C 95 % 1020,2 hPa 0,0 l/m SW 1,00 h 427 W/m 3,7 km/h (1 Bft)
20.05.2017 09:00 11,1 C 86 % 1020,6 hPa 0,0 l/m SW 0,67 h 419 W/m 6,5 km/h (2 Bft)
20.05.2017 10:00 12,3 C 76 % 1020,7 hPa 0,0 l/m W 0,33 h 367 W/m 8,3 km/h (2 Bft)
20.05.2017 11:00 12,7 C 71 % 1021,0 hPa 0,0 l/m W 0,33 h 478 W/m 7,9 km/h (2 Bft)
20.05.2017 12:00 14,3 C 61 % 1021,1 hPa 0,0 l/m W-NW 0,33 h 492 W/m 13,6 km/h (3 Bft)
20.05.2017 13:00 14,2 C 58 % 1021,4 hPa 0,0 l/m W 0,33 h 452 W/m 9,7 km/h (2 Bft)
20.05.2017 14:00 14,6 C 58 % 1021,4 hPa 0,0 l/m NW 0,08 h 353 W/m 10,7 km/h (2 Bft)
20.05.2017 15:00 14,6 C 59 % 1021,7 hPa 0,0 l/m NW 0,00 h 334 W/m 7,8 km/h (2 Bft)
20.05.2017 16:00 15,0 C 59 % 1021,8 hPa 0,0 l/m NW 0,17 h 337 W/m 6,4 km/h (2 Bft)
20.05.2017 17:00 15,0 C 60 % 1022,1 hPa 0,0 l/m NW 0,08 h 227 W/m 6,7 km/h (2 Bft)
20.05.2017 18:00 14,9 C 60 % 1022,4 hPa 0,0 l/m NW 0,33 h 234 W/m 5,7 km/h (1 Bft)
20.05.2017 19:00 15,3 C 61 % 1022,8 hPa 0,0 l/m N-NW 1,00 h 183 W/m 10,2 km/h (2 Bft)
20.05.2017 20:00 13,9 C 64 % 1023,3 hPa 0,0 l/m N 0,75 h 38 W/m 10,7 km/h (2 Bft)
20.05.2017 21:00 12,0 C 72 % 1023,9 hPa 0,0 l/m N 0,00 h 5 W/m 4,7 km/h (1 Bft)
20.05.2017 22:00 9,9 C 82 % 1024,3 hPa 0,0 l/m N 0,00 h 0 W/m 0,5 km/h (0 Bft)
20.05.2017 23:00 8,9 C 86 % 1024,6 hPa 0,0 l/m N 0,00 h 0 W/m 1,1 km/h (0 Bft)
21.05.2017 00:00 8,4 C 88 % 1024,9 hPa 0,0 l/m N 0,00 h 0 W/m 2,7 km/h (1 Bft)
21.05.2017 01:00 7,2 C 91 % 1025,0 hPa 0,0 l/m N 0,00 h 0 W/m 0,0 km/h (0 Bft)
21.05.2017 02:00 6,7 C 93 % 1024,9 hPa 0,0 l/m N 0,00 h 0 W/m 0,4 km/h (0 Bft)
21.05.2017 03:00 5,8 C 94 % 1024,9 hPa 0,0 l/m N 0,00 h 0 W/m 0,0 km/h (0 Bft)
21.05.2017 04:00 5,2 C 95 % 1024,9 hPa 0,0 l/m N 0,00 h 0 W/m 0,0 km/h (0 Bft)
21.05.2017 05:00 4,9 C 96 % 1024,7 hPa 0,0 l/m N 0,00 h 10 W/m 0,0 km/h (0 Bft)
21.05.2017 06:00 5,5 C 96 % 1024,9 hPa 0,0 l/m N 0,92 h 83 W/m 0,0 km/h (0 Bft)
21.05.2017 07:00 7,8 C 92 % 1025,0 hPa 0,0 l/m N 1,00 h 253 W/m 5,5 km/h (1 Bft)
21.05.2017 08:00 10,7 C 82 % 1025,0 hPa 0,0 l/m N-NO 1,00 h 438 W/m 8,6 km/h (2 Bft)
21.05.2017 09:00 13,0 C 74 % 1024,7 hPa 0,0 l/m O-NO 0,83 h 487 W/m 15,0 km/h (3 Bft)
21.05.2017 10:00 14,7 C 66 % 1024,5 hPa 0,0 l/m O-NO 0,92 h 667 W/m 20,2 km/h (4 Bft)
21.05.2017 11:00 15,9 C 59 % 1024,2 hPa 0,0 l/m O-NO 1,00 h 831 W/m 22,4 km/h (4 Bft)
21.05.2017 12:00 17,4 C 52 % 1023,7 hPa 0,0 l/m O 0,92 h 877 W/m 20,8 km/h (4 Bft)
21.05.2017 13:00 18,4 C 47 % 1023,1 hPa 0,0 l/m O 0,92 h 890 W/m 21,6 km/h (4 Bft)
21.05.2017 14:00 18,9 C 46 % 1022,4 hPa 0,0 l/m O-NO 1,00 h 852 W/m 23,6 km/h (4 Bft)
21.05.2017 15:00 19,2 C 47 % 1021,8 hPa 0,0 l/m O-NO 0,83 h 651 W/m 24,0 km/h (4 Bft)
21.05.2017 16:00 18,0 C 51 % 1021,3 hPa 0,0 l/m O 0,00 h 274 W/m 20,5 km/h (4 Bft)
21.05.2017 17:00 18,3 C 51 % 1020,8 hPa 0,0 l/m O-NO 0,42 h 322 W/m 19,3 km/h (3 Bft)
21.05.2017 18:00 17,8 C 53 % 1020,3 hPa 0,0 l/m O-NO 0,42 h 208 W/m 17,0 km/h (3 Bft)
21.05.2017 19:00 17,9 C 54 % 1019,9 hPa 0,0 l/m O-NO 0,92 h 194 W/m 16,0 km/h (3 Bft)
21.05.2017 20:00 16,8 C 58 % 1019,9 hPa 0,0 l/m NO 0,00 h 19 W/m 9,8 km/h (2 Bft)
21.05.2017 21:00 15,5 C 62 % 1019,9 hPa 0,0 l/m O-NO 0,00 h 0 W/m 7,5 km/h (2 Bft)
21.05.2017 22:00 14,3 C 68 % 1019,9 hPa 0,0 l/m O-NO 0,00 h 0 W/m 6,4 km/h (2 Bft)
21.05.2017 23:00 13,1 C 73 % 1019,4 hPa 0,0 l/m O-NO 0,00 h 0 W/m 2,8 km/h (1 Bft)
Min-Datum _ 20.05.17 17.05.17 19.05.17 - - - - 15.05.17
_ Min-Zeit 05:45 17:10 03:50 - - - - 01:45
Minimum _ 2,6 C 32 % 1005,3 hPa - - - - 0,0 km/h (0 Bft)
Max-Datum _ 17.05.17 15.05.17 16.05.17 15.05.17 - 15.05.17 15.05.17 19.05.17
_ Max-Zeit 17:20 03:05 00:25 14:10 - 05:55 13:15 13:35
Maximum _ 27,3 C 99 % 1028,3 hPa 3,0 l/m - 0,08 h 1274 W/m 33,8 km/h
W (5 Bft)
Durchschnitt _ 14,6 C 76 % 1019,2 hPa #7,2 l/m O-NO #59:10 h 347 W/m 6,9 km/h (2 Bft)